createdAt,value
2023-07-03T00:00:35.160Z,19.40
2023-07-03T00:03:05.742Z,19.40
2023-07-03T00:05:35.733Z,19.40
2023-07-03T00:08:04.252Z,19.40
2023-07-03T00:10:32.777Z,19.50
2023-07-03T00:13:01.324Z,19.50
2023-07-03T00:15:29.883Z,19.40
2023-07-03T00:17:58.520Z,19.30
2023-07-03T00:20:29.019Z,19.30
2023-07-03T00:22:57.662Z,19.30
2023-07-03T00:25:26.744Z,19.30
2023-07-03T00:27:56.166Z,19.30
2023-07-03T00:30:24.709Z,19.30
2023-07-03T00:32:53.247Z,19.30
2023-07-03T00:35:21.903Z,19.30
2023-07-03T00:37:51.829Z,19.20
2023-07-03T00:40:20.518Z,19.20
2023-07-03T00:42:54.049Z,19.20
2023-07-03T00:45:23.027Z,19.20
2023-07-03T00:47:51.900Z,19.20
2023-07-03T00:50:20.726Z,19.20
2023-07-03T00:52:54.233Z,19.20
2023-07-03T00:55:23.203Z,19.20
2023-07-03T00:57:52.444Z,19.20
2023-07-03T01:00:22.401Z,19.30
2023-07-03T01:02:56.836Z,19.20
2023-07-03T01:05:29.490Z,19.20
2023-07-03T01:08:00.262Z,19.20
2023-07-03T01:10:30.577Z,19.20
2023-07-03T01:13:02.113Z,19.10
2023-07-03T01:15:33.732Z,19.00
2023-07-03T01:18:04.129Z,19.10
2023-07-03T01:20:35.731Z,19.10
2023-07-03T01:23:09.980Z,19.10
2023-07-03T01:25:42.021Z,19.00
2023-07-03T01:28:13.437Z,19.00
2023-07-03T01:30:44.051Z,18.90
2023-07-03T01:33:14.988Z,18.90
2023-07-03T01:35:43.592Z,18.90
2023-07-03T01:38:12.320Z,18.90
2023-07-03T01:40:42.635Z,18.90
2023-07-03T01:43:11.570Z,18.80
2023-07-03T01:45:43.550Z,18.80
2023-07-03T01:48:12.178Z,18.80
2023-07-03T01:50:41.433Z,18.70
2023-07-03T01:53:16.864Z,18.70
2023-07-03T01:55:51.308Z,18.70
2023-07-03T01:58:29.872Z,18.70
2023-07-03T02:01:01.010Z,18.60
2023-07-03T02:03:33.362Z,18.60
2023-07-03T02:06:04.241Z,18.60
2023-07-03T02:08:33.280Z,18.60
2023-07-03T02:11:03.245Z,18.70
2023-07-03T02:13:31.831Z,18.70
2023-07-03T02:16:00.482Z,18.60
2023-07-03T02:18:29.055Z,18.60
2023-07-03T02:20:57.574Z,18.70
2023-07-03T02:23:26.137Z,18.70
2023-07-03T02:25:54.684Z,18.70
2023-07-03T02:28:24.598Z,18.70
2023-07-03T02:30:53.192Z,18.60
2023-07-03T02:33:21.817Z,18.60
2023-07-03T02:35:50.611Z,18.60
2023-07-03T02:38:19.398Z,18.60
2023-07-03T02:40:48.542Z,18.60
2023-07-03T02:43:17.068Z,18.60
2023-07-03T02:45:47.044Z,18.60
2023-07-03T02:48:16.520Z,18.60
2023-07-03T02:50:45.225Z,18.60
2023-07-03T02:53:13.770Z,18.70
2023-07-03T02:55:42.354Z,18.60
2023-07-03T02:58:10.879Z,18.50
2023-07-03T03:00:39.562Z,18.50
2023-07-03T03:03:09.827Z,18.60
2023-07-03T03:05:38.484Z,18.60
2023-07-03T03:08:08.898Z,18.60
2023-07-03T03:10:37.471Z,18.60
2023-07-03T03:13:06.091Z,18.70
2023-07-03T03:15:36.466Z,18.70
2023-07-03T03:18:05.431Z,18.70
2023-07-03T03:20:35.398Z,18.60
2023-07-03T03:23:04.006Z,18.60
2023-07-03T03:25:32.673Z,18.60
2023-07-03T03:28:01.235Z,18.60
2023-07-03T03:30:29.778Z,18.70
2023-07-03T03:32:58.347Z,18.70
2023-07-03T03:35:26.962Z,18.60
2023-07-03T03:37:56.869Z,18.60
2023-07-03T03:40:25.394Z,18.60
2023-07-03T03:42:54.011Z,18.60
2023-07-03T03:45:22.630Z,18.60
2023-07-03T03:47:52.449Z,18.60
2023-07-03T03:50:21.131Z,18.60
2023-07-03T03:52:49.691Z,18.70
2023-07-03T03:55:19.746Z,18.60
2023-07-03T03:57:48.261Z,18.70
2023-07-03T04:00:21.548Z,18.60
2023-07-03T04:02:50.539Z,18.60
2023-07-03T04:05:19.288Z,18.60
2023-07-03T04:07:47.944Z,18.60
2023-07-03T04:10:16.491Z,18.60
2023-07-03T04:12:46.428Z,18.60
2023-07-03T04:15:15.012Z,18.60
2023-07-03T04:17:43.601Z,18.50
2023-07-03T04:20:14.826Z,18.60
2023-07-03T04:22:43.499Z,18.60
2023-07-03T04:25:12.698Z,18.70
2023-07-03T04:27:41.213Z,18.70
2023-07-03T04:30:12.746Z,18.80
2023-07-03T04:32:41.323Z,18.80
2023-07-03T04:35:10.606Z,18.80
2023-07-03T04:37:39.290Z,18.80
2023-07-03T04:40:09.848Z,18.70
2023-07-03T04:42:38.594Z,18.70
2023-07-03T04:45:09.623Z,18.80
2023-07-03T04:47:39.987Z,18.80
2023-07-03T04:50:12.139Z,18.80
2023-07-03T04:52:41.006Z,18.70
2023-07-03T04:55:10.746Z,18.70
2023-07-03T04:57:40.116Z,18.70
2023-07-03T05:00:16.182Z,18.70
2023-07-03T05:02:47.842Z,18.60
2023-07-03T05:05:17.509Z,18.70
2023-07-03T05:07:47.363Z,18.70
2023-07-03T05:10:17.340Z,18.80
2023-07-03T05:12:46.073Z,18.80
2023-07-03T05:15:16.542Z,18.80
2023-07-03T05:17:50.812Z,18.80
2023-07-03T05:20:20.823Z,18.90
2023-07-03T05:22:49.512Z,18.90
2023-07-03T05:25:18.729Z,18.90
2023-07-03T05:27:48.176Z,18.90
2023-07-03T05:30:17.056Z,19.00
2023-07-03T05:32:47.624Z,19.10
2023-07-03T05:35:16.352Z,19.10
2023-07-03T05:37:44.892Z,19.10
2023-07-03T05:40:16.332Z,19.10
2023-07-03T05:42:45.348Z,19.20
2023-07-03T05:45:14.144Z,19.20
2023-07-03T05:47:42.938Z,19.30
2023-07-03T05:50:13.186Z,19.30
2023-07-03T05:52:42.886Z,19.40
2023-07-03T05:55:11.643Z,19.50
2023-07-03T05:57:40.264Z,19.50
2023-07-03T06:00:14.533Z,19.60
2023-07-03T06:02:43.748Z,19.60
2023-07-03T06:05:14.901Z,19.50
2023-07-03T06:07:43.691Z,19.50
2023-07-03T06:10:13.747Z,19.50
2023-07-03T06:12:42.412Z,19.50
2023-07-03T06:15:12.166Z,19.50
2023-07-03T06:17:41.797Z,19.50
2023-07-03T06:20:12.327Z,19.40
2023-07-03T06:22:43.145Z,19.40
2023-07-03T06:25:12.345Z,19.40
2023-07-03T06:27:40.991Z,19.40
2023-07-03T06:30:10.327Z,19.50
2023-07-03T06:32:39.391Z,19.50
2023-07-03T06:35:08.772Z,19.50
2023-07-03T06:37:40.148Z,19.50
2023-07-03T06:40:11.597Z,19.50
2023-07-03T06:42:40.484Z,19.50
2023-07-03T06:45:10.006Z,19.50
2023-07-03T06:47:38.671Z,19.50
2023-07-03T06:50:08.572Z,19.40
2023-07-03T06:52:37.665Z,19.40
2023-07-03T06:55:07.000Z,19.50
2023-07-03T06:57:37.358Z,19.40
2023-07-03T07:00:07.440Z,19.30
2023-07-03T07:02:35.955Z,19.40
2023-07-03T07:05:05.909Z,19.40
2023-07-03T07:07:34.548Z,19.50
2023-07-03T07:10:03.291Z,19.60
2023-07-03T07:12:31.927Z,19.60
2023-07-03T07:15:01.793Z,19.60
2023-07-03T07:17:49.826Z,19.50
2023-07-03T07:20:18.896Z,19.60
2023-07-03T07:22:47.728Z,19.60
2023-07-03T07:25:16.455Z,19.50
2023-07-03T07:27:45.051Z,19.50
2023-07-03T07:30:15.700Z,19.60
2023-07-03T07:32:44.396Z,19.70
2023-07-03T07:35:12.896Z,19.70
2023-07-03T07:37:41.686Z,19.70
2023-07-03T07:40:11.477Z,19.70
2023-07-03T07:42:40.436Z,19.70
2023-07-03T07:45:09.788Z,19.70
2023-07-03T07:47:40.627Z,19.80
2023-07-03T07:50:10.537Z,19.90
2023-07-03T07:52:39.070Z,19.90
2023-07-03T07:55:09.087Z,20.00
2023-07-03T07:57:37.704Z,20.00
2023-07-03T08:00:08.095Z,20.00
2023-07-03T08:02:36.767Z,20.00
2023-07-03T08:05:07.470Z,20.10
2023-07-03T08:07:36.148Z,20.10
2023-07-03T08:10:05.427Z,20.20
2023-07-03T08:12:35.013Z,20.10
2023-07-03T08:15:05.032Z,20.20
2023-07-03T08:17:33.893Z,20.00
2023-07-03T08:20:02.608Z,20.00
2023-07-03T08:22:32.513Z,20.10
2023-07-03T08:25:01.936Z,20.20
2023-07-03T08:27:30.453Z,20.20
2023-07-03T08:29:58.960Z,20.20
2023-07-03T08:32:27.522Z,20.20
2023-07-03T08:37:28.216Z,20.20
2023-07-03T08:39:58.311Z,20.20
2023-07-03T08:42:30.034Z,20.30
2023-07-03T08:44:59.686Z,20.30
2023-07-03T08:47:30.602Z,20.30
2023-07-03T08:50:00.400Z,20.30
2023-07-03T08:52:33.878Z,20.30
2023-07-03T08:55:05.910Z,20.40
2023-07-03T08:57:35.414Z,20.30
2023-07-03T09:00:12.082Z,20.40
2023-07-03T09:02:43.486Z,20.40
2023-07-03T09:05:32.611Z,20.40
2023-07-03T09:08:04.482Z,20.40
2023-07-03T09:10:38.508Z,20.50
2023-07-03T09:13:10.183Z,20.60
2023-07-03T09:15:43.486Z,20.50
2023-07-03T09:18:15.768Z,20.60
2023-07-03T09:20:44.854Z,20.60
2023-07-03T09:23:19.935Z,20.50
2023-07-03T09:25:52.626Z,20.50
2023-07-03T09:28:21.759Z,20.50
2023-07-03T09:30:50.658Z,20.60
2023-07-03T09:33:21.933Z,20.60
2023-07-03T09:35:51.828Z,20.70
2023-07-03T09:38:25.335Z,20.70
2023-07-03T09:40:59.599Z,20.80
2023-07-03T09:43:30.611Z,20.80
2023-07-03T09:46:06.235Z,20.80
2023-07-03T09:48:35.968Z,20.80
2023-07-03T09:51:08.447Z,20.90
2023-07-03T09:53:41.531Z,20.80
2023-07-03T09:56:17.807Z,20.80
2023-07-03T09:58:49.418Z,20.80
2023-07-03T10:03:58.091Z,20.70
2023-07-03T10:06:26.758Z,20.70
2023-07-03T10:11:33.669Z,20.70
2023-07-03T10:14:03.017Z,20.80
2023-07-03T10:16:32.995Z,20.80
2023-07-03T10:19:01.910Z,20.80
2023-07-03T10:21:30.644Z,20.70
2023-07-03T10:23:59.824Z,20.70
2023-07-03T10:26:33.243Z,20.60
2023-07-03T10:29:06.815Z,20.70
2023-07-03T10:31:40.000Z,20.80
2023-07-03T10:34:15.780Z,20.70
2023-07-03T10:36:46.110Z,20.80
2023-07-03T10:39:18.828Z,20.90
2023-07-03T10:41:51.479Z,20.90
2023-07-03T10:44:22.531Z,20.80
2023-07-03T10:46:57.382Z,20.80
2023-07-03T10:49:29.349Z,20.80
2023-07-03T10:52:07.101Z,20.80
2023-07-03T10:54:39.226Z,20.80
2023-07-03T10:57:11.750Z,20.70
2023-07-03T10:59:43.602Z,20.80
2023-07-03T11:02:20.386Z,20.90
2023-07-03T11:04:57.499Z,21.00
2023-07-03T11:07:31.038Z,21.00
2023-07-03T11:10:05.131Z,21.20
2023-07-03T11:12:38.422Z,21.20
2023-07-03T11:15:22.214Z,21.20
2023-07-03T11:23:20.929Z,21.30
2023-07-03T11:28:45.121Z,21.30
2023-07-03T11:31:15.382Z,21.30
2023-07-03T11:36:50.358Z,21.20
2023-07-03T11:44:50.121Z,21.00
2023-07-03T11:47:26.569Z,21.00
2023-07-03T11:49:57.110Z,20.90
2023-07-03T11:52:28.757Z,20.80
2023-07-03T11:55:02.037Z,20.80
2023-07-03T11:57:34.128Z,20.70
2023-07-03T12:00:19.056Z,20.70
2023-07-03T12:02:57.942Z,20.60
2023-07-03T12:05:53.218Z,20.60
2023-07-03T12:08:45.041Z,20.50
2023-07-03T12:11:15.982Z,20.50
2023-07-03T12:13:53.872Z,20.40
2023-07-03T12:16:29.881Z,20.30
2023-07-03T12:19:04.238Z,20.30
2023-07-03T12:21:47.518Z,20.20
2023-07-03T12:24:24.990Z,20.20
2023-07-03T12:26:57.397Z,20.20
2023-07-03T12:29:25.994Z,20.20
2023-07-03T12:32:06.509Z,20.20
2023-07-03T12:34:37.718Z,20.20
2023-07-03T12:37:08.273Z,20.20
2023-07-03T12:39:37.875Z,20.20
2023-07-03T12:42:07.969Z,20.20
2023-07-03T12:44:36.999Z,20.20
2023-07-03T12:47:11.847Z,20.30
2023-07-03T12:50:04.643Z,20.30
2023-07-03T12:52:34.918Z,20.30
2023-07-03T12:55:14.613Z,20.30
2023-07-03T12:57:45.836Z,20.30
2023-07-03T13:00:20.948Z,20.30
2023-07-03T13:02:50.992Z,20.30
2023-07-03T13:05:22.505Z,20.30
2023-07-03T13:07:52.347Z,20.30
2023-07-03T13:10:21.944Z,20.20
2023-07-03T13:13:06.914Z,20.30
2023-07-03T13:15:37.446Z,20.20
2023-07-03T13:18:09.246Z,20.20
2023-07-03T13:20:38.273Z,20.30
2023-07-03T13:23:08.311Z,20.40
2023-07-03T13:25:38.820Z,20.50
2023-07-03T13:28:09.738Z,20.60
2023-07-03T13:30:40.302Z,20.60
2023-07-03T13:33:12.147Z,20.50
2023-07-03T13:35:42.613Z,20.50
2023-07-03T13:38:29.912Z,20.40
2023-07-03T13:41:00.421Z,20.30
2023-07-03T13:43:30.844Z,20.30
2023-07-03T13:45:59.876Z,20.20
2023-07-03T13:48:30.585Z,20.20
2023-07-03T13:50:59.276Z,20.30
2023-07-03T13:53:28.766Z,20.40
2023-07-03T13:55:57.351Z,20.40
2023-07-03T13:58:26.635Z,20.40
2023-07-03T14:00:55.260Z,20.30
2023-07-03T14:03:23.811Z,20.40
2023-07-03T14:05:54.558Z,20.30
2023-07-03T14:08:23.988Z,20.20
2023-07-03T14:10:52.652Z,20.10
2023-07-03T14:13:21.205Z,20.10
2023-07-03T14:15:50.651Z,20.10
2023-07-03T14:18:19.428Z,20.00
2023-07-03T14:20:49.918Z,20.00
2023-07-03T14:23:19.860Z,20.00
2023-07-03T14:25:49.862Z,20.00
2023-07-03T14:28:18.841Z,20.00
2023-07-03T14:30:48.245Z,20.10
2023-07-03T14:33:17.293Z,20.10
2023-07-03T14:35:46.183Z,20.20
2023-07-03T14:38:14.761Z,20.30
2023-07-03T14:40:44.912Z,20.40
2023-07-03T14:43:13.486Z,20.40
2023-07-03T14:45:42.067Z,20.50
2023-07-03T14:48:12.262Z,20.60
2023-07-03T14:50:42.378Z,20.70
2023-07-03T14:53:11.031Z,20.70
2023-07-03T14:55:39.592Z,20.70
2023-07-03T14:58:11.834Z,20.70
2023-07-03T15:00:40.518Z,20.80
2023-07-03T15:03:09.630Z,20.80
2023-07-03T15:05:38.258Z,20.90
2023-07-03T15:08:07.086Z,20.90
2023-07-03T15:10:36.446Z,21.00
2023-07-03T15:13:05.251Z,21.00
2023-07-03T15:15:35.241Z,21.10
2023-07-03T15:18:04.340Z,21.20
2023-07-03T15:20:33.391Z,21.20
2023-07-03T15:23:01.968Z,21.20
2023-07-03T15:25:30.503Z,21.20
2023-07-03T15:27:59.314Z,21.30
2023-07-03T15:30:28.017Z,21.20
2023-07-03T15:32:57.989Z,21.30
2023-07-03T15:35:26.660Z,21.20
2023-07-03T15:37:55.288Z,21.20
2023-07-03T15:40:23.883Z,21.20
2023-07-03T15:42:53.265Z,21.20
2023-07-03T15:45:23.305Z,21.20
2023-07-03T15:47:52.138Z,21.30
2023-07-03T15:50:22.079Z,21.20
2023-07-03T15:52:50.611Z,21.20
2023-07-03T15:55:19.621Z,21.20
2023-07-03T15:57:48.132Z,21.20
2023-07-03T16:00:24.694Z,21.20
2023-07-03T16:02:53.313Z,21.20
2023-07-03T16:05:21.938Z,21.20
2023-07-03T16:07:50.485Z,21.30
2023-07-03T16:10:19.368Z,21.30
2023-07-03T16:12:47.903Z,21.30
2023-07-03T16:15:16.532Z,21.30
2023-07-03T16:17:46.459Z,21.40
2023-07-03T16:20:17.522Z,21.40
2023-07-03T16:22:47.234Z,21.30
2023-07-03T16:25:15.878Z,21.30
2023-07-03T16:27:44.415Z,21.30
2023-07-03T16:30:13.455Z,21.30
2023-07-03T16:32:42.051Z,21.30
2023-07-03T16:35:12.077Z,21.20
2023-07-03T16:37:40.590Z,21.30
2023-07-03T16:40:10.115Z,21.30
2023-07-03T16:42:38.742Z,21.20
2023-07-03T16:45:08.696Z,21.10
2023-07-03T16:47:37.234Z,21.10
2023-07-03T16:50:06.536Z,21.00
2023-07-03T16:52:37.898Z,21.00
2023-07-03T16:55:07.100Z,20.90
2023-07-03T16:57:35.639Z,20.90
2023-07-03T17:00:05.317Z,20.90
2023-07-03T17:02:33.983Z,20.90
2023-07-03T17:05:02.597Z,20.90
2023-07-03T17:07:31.162Z,20.90
2023-07-03T17:10:01.145Z,21.00
2023-07-03T17:12:29.880Z,21.10
2023-07-03T17:14:58.390Z,21.20
2023-07-03T17:17:27.043Z,21.30
2023-07-03T17:19:55.760Z,21.50
2023-07-03T17:22:24.482Z,21.70
2023-07-03T17:24:53.288Z,21.90
2023-07-03T17:27:23.210Z,22.00
2023-07-03T17:29:51.875Z,22.20
2023-07-03T17:32:20.566Z,22.30
2023-07-03T17:34:49.203Z,22.30
2023-07-03T17:37:17.814Z,22.30
2023-07-03T17:39:47.283Z,22.30
2023-07-03T17:42:15.850Z,22.30
2023-07-03T17:44:45.757Z,22.40
2023-07-03T17:47:14.538Z,22.40
2023-07-03T17:49:43.139Z,22.40
2023-07-03T17:52:11.789Z,22.40
2023-07-03T17:54:40.520Z,22.30
2023-07-03T17:57:09.968Z,22.30
2023-07-03T17:59:38.526Z,22.30
2023-07-03T18:02:11.977Z,22.20
2023-07-03T18:04:40.709Z,22.10
2023-07-03T18:07:09.775Z,22.10
2023-07-03T18:09:38.501Z,22.10
2023-07-03T18:12:08.154Z,22.00
2023-07-03T18:14:39.041Z,21.90
2023-07-03T18:17:09.571Z,21.80
2023-07-03T18:19:38.108Z,21.80
2023-07-03T18:22:07.292Z,21.70
2023-07-03T18:24:36.027Z,21.70
2023-07-03T18:27:04.770Z,21.70
2023-07-03T18:29:33.353Z,21.70
2023-07-03T18:32:01.946Z,21.70
2023-07-03T18:34:31.859Z,21.70
2023-07-03T18:37:00.415Z,21.60
2023-07-03T18:39:29.040Z,21.40
2023-07-03T18:41:57.652Z,21.20
2023-07-03T18:44:27.378Z,21.00
2023-07-03T18:46:55.929Z,20.90
2023-07-03T18:49:24.469Z,20.70
2023-07-03T18:51:54.650Z,20.60
2023-07-03T18:54:24.827Z,20.50
2023-07-03T18:56:54.159Z,20.40
2023-07-03T18:59:22.841Z,20.30
2023-07-03T19:01:51.380Z,20.30
2023-07-03T19:04:19.963Z,20.20
2023-07-03T19:06:48.721Z,20.10
2023-07-03T19:09:18.846Z,20.10
2023-07-03T19:11:47.425Z,20.00
2023-07-03T19:14:16.036Z,20.00
2023-07-03T19:16:44.624Z,19.90
2023-07-03T19:19:13.211Z,19.90
2023-07-03T19:21:43.466Z,19.80
2023-07-03T19:24:12.734Z,19.80
2023-07-03T19:26:45.292Z,19.80
2023-07-03T19:29:14.154Z,19.80
2023-07-03T19:31:43.053Z,19.80
2023-07-03T19:34:12.312Z,19.80
2023-07-03T19:36:41.113Z,19.70
2023-07-03T19:39:10.027Z,19.70
2023-07-03T19:41:40.318Z,19.70
2023-07-03T19:44:10.354Z,19.70
2023-07-03T19:46:38.946Z,19.70
2023-07-03T19:49:07.529Z,19.70
2023-07-03T19:51:36.168Z,19.60
2023-07-03T19:54:07.201Z,19.60
2023-07-03T19:56:35.901Z,19.50
2023-07-03T19:59:04.701Z,19.50
2023-07-03T20:01:35.181Z,19.50
2023-07-03T20:04:04.506Z,19.40
2023-07-03T20:06:33.397Z,19.40
2023-07-03T20:09:02.217Z,19.40
2023-07-03T20:11:30.795Z,19.40
2023-07-03T20:13:59.514Z,19.40
2023-07-03T20:16:28.128Z,19.40
2023-07-03T20:18:59.394Z,19.40
2023-07-03T20:21:28.133Z,19.40
2023-07-03T20:23:57.850Z,19.40
2023-07-03T20:26:27.041Z,19.40
2023-07-03T20:28:56.064Z,19.40
2023-07-03T20:31:24.991Z,19.40
2023-07-03T20:33:53.632Z,19.30
2023-07-03T20:36:23.726Z,19.30
2023-07-03T20:38:52.429Z,19.30
2023-07-03T20:41:21.942Z,19.30
2023-07-03T20:43:51.319Z,19.20
2023-07-03T20:46:22.263Z,19.20
2023-07-03T20:48:55.947Z,19.20
2023-07-03T20:51:28.120Z,19.30
2023-07-03T20:54:04.751Z,19.30
2023-07-03T20:56:38.851Z,19.30
2023-07-03T20:59:08.069Z,19.30
2023-07-03T21:01:40.149Z,19.30
2023-07-03T21:04:09.608Z,19.40
2023-07-03T21:06:40.047Z,19.30
2023-07-03T21:09:08.928Z,19.30
2023-07-03T21:11:40.454Z,19.30
2023-07-03T21:14:09.327Z,19.30
2023-07-03T21:16:38.389Z,19.20
2023-07-03T21:19:08.955Z,19.20
2023-07-03T21:21:38.125Z,19.20
2023-07-03T21:24:13.108Z,19.30
2023-07-03T21:26:41.664Z,19.20
2023-07-03T21:29:10.269Z,19.20
2023-07-03T21:31:39.852Z,19.20
2023-07-03T21:34:08.548Z,19.20
2023-07-03T21:36:37.288Z,19.20
2023-07-03T21:39:07.832Z,19.20
2023-07-03T21:41:37.657Z,19.20
2023-07-03T21:44:12.452Z,19.20
2023-07-03T21:46:41.759Z,19.10
2023-07-03T21:49:13.764Z,19.10
2023-07-03T21:51:42.621Z,19.20
2023-07-03T21:54:12.664Z,19.10
2023-07-03T21:56:43.302Z,19.10
2023-07-03T21:59:13.155Z,19.10
2023-07-03T22:01:43.040Z,19.10
2023-07-03T22:04:12.909Z,19.00
2023-07-03T22:06:41.552Z,19.20
2023-07-03T22:09:10.179Z,19.10
2023-07-03T22:11:40.458Z,19.10
2023-07-03T22:14:09.048Z,19.10
2023-07-03T22:16:37.593Z,19.20
2023-07-03T22:19:06.194Z,19.40
2023-07-03T22:21:35.059Z,19.20
2023-07-03T22:24:03.600Z,19.20
2023-07-03T22:26:32.172Z,19.20
2023-07-03T22:29:02.085Z,19.30
2023-07-03T22:31:30.643Z,19.50
2023-07-03T22:33:59.211Z,19.60
2023-07-03T22:36:27.745Z,19.70
2023-07-03T22:38:56.290Z,19.60
2023-07-03T22:41:24.994Z,19.50
2023-07-03T22:43:53.594Z,19.60
2023-07-03T22:46:24.122Z,19.70
2023-07-03T22:48:54.973Z,19.60
2023-07-03T22:51:23.672Z,19.40
2023-07-03T22:53:52.304Z,19.30
2023-07-03T22:56:20.878Z,19.30
2023-07-03T22:58:49.421Z,19.20
2023-07-03T23:01:18.016Z,19.10
2023-07-03T23:03:47.960Z,19.10
2023-07-03T23:06:16.564Z,19.10
2023-07-03T23:08:45.284Z,19.10
2023-07-03T23:11:13.810Z,19.00
2023-07-03T23:13:42.683Z,19.10
2023-07-03T23:16:11.305Z,19.10
2023-07-03T23:18:42.488Z,19.20
2023-07-03T23:21:15.316Z,19.10
2023-07-03T23:23:44.134Z,19.00
2023-07-03T23:26:14.040Z,18.90
2023-07-03T23:28:44.044Z,18.90
2023-07-03T23:31:14.336Z,18.90
2023-07-03T23:33:49.575Z,18.90
2023-07-03T23:36:21.419Z,19.10
2023-07-03T23:38:51.342Z,19.10
2023-07-03T23:41:21.458Z,19.00
2023-07-03T23:43:50.441Z,19.00
2023-07-03T23:46:19.238Z,19.00
2023-07-03T23:48:48.588Z,19.10
2023-07-03T23:51:17.968Z,19.20
2023-07-03T23:53:49.050Z,19.30
2023-07-03T23:56:19.392Z,19.30
2023-07-03T23:58:49.364Z,19.20
